sensor_id;sensor_type;location;lat;lon;timestamp;pressure;altitude;pressure_sealevel;temperature;humidity
60642;BME280;46837;52.446;-1.930;2023-04-03T00:00:09;101775.12;;;4.46;69.94
60642;BME280;46837;52.446;-1.930;2023-04-03T00:01:09;101777.32;;;4.46;69.90
60642;BME280;46837;52.446;-1.930;2023-04-03T00:02:09;101777.40;;;4.37;70.00
60642;BME280;46837;52.446;-1.930;2023-04-03T00:03:09;101777.40;;;4.28;70.31
60642;BME280;46837;52.446;-1.930;2023-04-03T00:04:09;101779.45;;;4.32;70.35
60642;BME280;46837;52.446;-1.930;2023-04-03T00:05:09;101777.69;;;4.29;70.41
60642;BME280;46837;52.446;-1.930;2023-04-03T00:06:09;101776.08;;;4.31;70.38
60642;BME280;46837;52.446;-1.930;2023-04-03T00:07:09;101776.04;;;4.31;70.41
60642;BME280;46837;52.446;-1.930;2023-04-03T00:08:10;101777.01;;;4.32;70.40
60642;BME280;46837;52.446;-1.930;2023-04-03T00:09:09;101774.94;;;4.31;70.37
60642;BME280;46837;52.446;-1.930;2023-04-03T00:10:09;101773.55;;;4.30;70.29
60642;BME280;46837;52.446;-1.930;2023-04-03T00:11:09;101774.46;;;4.33;70.31
60642;BME280;46837;52.446;-1.930;2023-04-03T00:12:09;101772.30;;;4.31;70.19
60642;BME280;46837;52.446;-1.930;2023-04-03T00:13:09;101772.07;;;4.27;70.41
60642;BME280;46837;52.446;-1.930;2023-04-03T00:14:09;101774.46;;;4.25;70.48
60642;BME280;46837;52.446;-1.930;2023-04-03T00:15:09;101775.23;;;4.17;70.72
60642;BME280;46837;52.446;-1.930;2023-04-03T00:16:09;101773.32;;;4.17;70.68
60642;BME280;46837;52.446;-1.930;2023-04-03T00:17:09;101777.32;;;4.19;70.59
60642;BME280;46837;52.446;-1.930;2023-04-03T00:18:09;101774.86;;;4.23;70.57
60642;BME280;46837;52.446;-1.930;2023-04-03T00:19:09;101779.17;;;4.26;70.61
60642;BME280;46837;52.446;-1.930;2023-04-03T00:20:09;101777.75;;;4.26;70.45
60642;BME280;46837;52.446;-1.930;2023-04-03T00:21:09;101776.93;;;4.23;70.50
60642;BME280;46837;52.446;-1.930;2023-04-03T00:22:09;101780.00;;;4.20;70.70
60642;BME280;46837;52.446;-1.930;2023-04-03T00:23:09;101779.20;;;4.23;70.62
60642;BME280;46837;52.446;-1.930;2023-04-03T00:24:09;101777.18;;;4.24;70.67
60642;BME280;46837;52.446;-1.930;2023-04-03T00:25:09;101776.41;;;4.26;70.70
60642;BME280;46837;52.446;-1.930;2023-04-03T00:26:09;101776.74;;;4.18;70.79
60642;BME280;46837;52.446;-1.930;2023-04-03T00:27:09;101775.62;;;4.20;70.83
60642;BME280;46837;52.446;-1.930;2023-04-03T00:28:09;101774.02;;;4.19;70.89
60642;BME280;46837;52.446;-1.930;2023-04-03T00:29:09;101777.21;;;4.16;70.86
60642;BME280;46837;52.446;-1.930;2023-04-03T00:30:09;101775.81;;;4.11;71.05
60642;BME280;46837;52.446;-1.930;2023-04-03T00:31:09;101780.97;;;4.06;71.13
60642;BME280;46837;52.446;-1.930;2023-04-03T00:32:09;101777.74;;;4.02;71.43
60642;BME280;46837;52.446;-1.930;2023-04-03T00:33:11;101778.38;;;3.99;71.59
60642;BME280;46837;52.446;-1.930;2023-04-03T00:34:09;101777.86;;;4.02;71.56
60642;BME280;46837;52.446;-1.930;2023-04-03T00:35:09;101776.18;;;4.05;71.37
60642;BME280;46837;52.446;-1.930;2023-04-03T00:36:09;101778.30;;;4.08;71.28
60642;BME280;46837;52.446;-1.930;2023-04-03T00:37:09;101775.71;;;4.09;71.27
60642;BME280;46837;52.446;-1.930;2023-04-03T00:38:09;101775.77;;;4.11;71.26
60642;BME280;46837;52.446;-1.930;2023-04-03T00:39:09;101773.95;;;4.12;71.21
60642;BME280;46837;52.446;-1.930;2023-04-03T00:40:09;101777.71;;;4.11;71.18
60642;BME280;46837;52.446;-1.930;2023-04-03T00:41:09;101775.22;;;4.08;71.58
60642;BME280;46837;52.446;-1.930;2023-04-03T00:42:09;101773.45;;;4.10;71.45
60642;BME280;46837;52.446;-1.930;2023-04-03T00:43:14;101774.34;;;4.11;71.66
60642;BME280;46837;52.446;-1.930;2023-04-03T00:45:58;101774.07;;;4.13;71.76
60642;BME280;46837;52.446;-1.930;2023-04-03T00:46:09;101771.60;;;4.14;71.38
60642;BME280;46837;52.446;-1.930;2023-04-03T00:47:10;101768.88;;;4.13;71.41
60642;BME280;46837;52.446;-1.930;2023-04-03T00:48:11;101772.21;;;4.14;71.51
60642;BME280;46837;52.446;-1.930;2023-04-03T00:49:09;101772.21;;;4.14;71.32
60642;BME280;46837;52.446;-1.930;2023-04-03T00:50:09;101768.00;;;4.15;71.33
60642;BME280;46837;52.446;-1.930;2023-04-03T00:51:14;101770.72;;;4.16;71.18
60642;BME280;46837;52.446;-1.930;2023-04-03T00:52:10;101772.07;;;4.11;71.38
60642;BME280;46837;52.446;-1.930;2023-04-03T00:53:11;101772.76;;;4.09;71.48
60642;BME280;46837;52.446;-1.930;2023-04-03T00:54:09;101770.53;;;4.10;71.37
60642;BME280;46837;52.446;-1.930;2023-04-03T00:55:09;101775.90;;;4.13;71.45
60642;BME280;46837;52.446;-1.930;2023-04-03T00:56:12;101773.51;;;4.14;71.37
60642;BME280;46837;52.446;-1.930;2023-04-03T00:57:09;101771.29;;;4.15;71.36
60642;BME280;46837;52.446;-1.930;2023-04-03T00:58:09;101772.09;;;4.13;71.29
60642;BME280;46837;52.446;-1.930;2023-04-03T00:59:14;101770.56;;;4.16;71.30
60642;BME280;46837;52.446;-1.930;2023-04-03T01:00:10;101771.46;;;4.18;71.23
60642;BME280;46837;52.446;-1.930;2023-04-03T01:01:10;101770.55;;;4.13;71.23
60642;BME280;46837;52.446;-1.930;2023-04-03T01:02:09;101771.20;;;4.15;71.28
60642;BME280;46837;52.446;-1.930;2023-04-03T01:03:09;101770.77;;;4.18;71.20
60642;BME280;46837;52.446;-1.930;2023-04-03T01:05:09;101769.00;;;4.14;70.92
60642;BME280;46837;52.446;-1.930;2023-04-03T01:06:09;101772.84;;;4.10;71.10
60642;BME280;46837;52.446;-1.930;2023-04-03T01:07:17;101769.96;;;4.10;71.17
60642;BME280;46837;52.446;-1.930;2023-04-03T01:08:09;101767.67;;;3.99;71.28
60642;BME280;46837;52.446;-1.930;2023-04-03T01:09:09;101762.21;;;3.97;71.45
60642;BME280;46837;52.446;-1.930;2023-04-03T01:10:10;101763.90;;;3.94;71.61
60642;BME280;46837;52.446;-1.930;2023-04-03T01:11:09;101762.54;;;3.95;71.54
60642;BME280;46837;52.446;-1.930;2023-04-03T01:12:16;101761.86;;;3.92;71.62
60642;BME280;46837;52.446;-1.930;2023-04-03T01:14:09;101764.75;;;3.94;71.60
60642;BME280;46837;52.446;-1.930;2023-04-03T01:15:16;101766.81;;;3.86;71.78
60642;BME280;46837;52.446;-1.930;2023-04-03T01:16:09;101767.55;;;3.88;71.91
60642;BME280;46837;52.446;-1.930;2023-04-03T01:18:10;101769.49;;;3.85;71.86
60642;BME280;46837;52.446;-1.930;2023-04-03T01:19:11;101765.09;;;3.83;72.12
60642;BME280;46837;52.446;-1.930;2023-04-03T01:20:22;101763.79;;;3.89;72.14
60642;BME280;46837;52.446;-1.930;2023-04-03T01:21:23;101766.08;;;3.92;72.03
60642;BME280;46837;52.446;-1.930;2023-04-03T01:22:19;101767.44;;;3.90;71.90
60642;BME280;46837;52.446;-1.930;2023-04-03T01:24:20;101763.85;;;3.92;71.86
60642;BME280;46837;52.446;-1.930;2023-04-03T01:25:09;101767.60;;;3.95;71.84
60642;BME280;46837;52.446;-1.930;2023-04-03T01:26:09;101762.58;;;3.91;71.83
60642;BME280;46837;52.446;-1.930;2023-04-03T01:27:09;101762.79;;;3.91;71.94
60642;BME280;46837;52.446;-1.930;2023-04-03T01:28:10;101759.00;;;3.95;71.86
60642;BME280;46837;52.446;-1.930;2023-04-03T01:29:09;101762.46;;;3.96;71.78
60642;BME280;46837;52.446;-1.930;2023-04-03T01:30:09;101761.34;;;3.94;71.71
60642;BME280;46837;52.446;-1.930;2023-04-03T01:32:09;101758.68;;;3.83;71.97
60642;BME280;46837;52.446;-1.930;2023-04-03T01:33:09;101756.91;;;3.85;72.18
60642;BME280;46837;52.446;-1.930;2023-04-03T01:34:09;101758.05;;;3.86;72.14
60642;BME280;46837;52.446;-1.930;2023-04-03T01:35:09;101755.01;;;3.86;72.10
60642;BME280;46837;52.446;-1.930;2023-04-03T01:36:10;101752.99;;;3.87;72.04
60642;BME280;46837;52.446;-1.930;2023-04-03T01:37:09;101751.72;;;3.85;71.95
60642;BME280;46837;52.446;-1.930;2023-04-03T01:38:09;101752.76;;;3.82;72.02
60642;BME280;46837;52.446;-1.930;2023-04-03T01:39:09;101751.38;;;3.83;72.11
60642;BME280;46837;52.446;-1.930;2023-04-03T01:40:09;101748.60;;;3.85;72.08
60642;BME280;46837;52.446;-1.930;2023-04-03T01:41:09;101748.92;;;3.85;72.09
60642;BME280;46837;52.446;-1.930;2023-04-03T01:42:09;101749.73;;;3.85;72.14
60642;BME280;46837;52.446;-1.930;2023-04-03T01:43:09;101749.87;;;3.81;72.21
60642;BME280;46837;52.446;-1.930;2023-04-03T01:44:09;101749.23;;;3.83;72.24
60642;BME280;46837;52.446;-1.930;2023-04-03T01:45:09;101750.89;;;3.83;72.16
60642;BME280;46837;52.446;-1.930;2023-04-03T01:46:09;101745.59;;;3.85;72.15
60642;BME280;46837;52.446;-1.930;2023-04-03T01:47:09;101748.32;;;3.86;72.08
60642;BME280;46837;52.446;-1.930;2023-04-03T01:48:09;101746.97;;;3.78;72.14
60642;BME280;46837;52.446;-1.930;2023-04-03T01:49:09;101745.25;;;3.82;72.21
60642;BME280;46837;52.446;-1.930;2023-04-03T01:50:09;101746.20;;;3.78;72.22
60642;BME280;46837;52.446;-1.930;2023-04-03T01:51:09;101747.46;;;3.79;72.26
60642;BME280;46837;52.446;-1.930;2023-04-03T01:52:09;101745.85;;;3.80;72.18
60642;BME280;46837;52.446;-1.930;2023-04-03T01:53:09;101746.75;;;3.82;72.09
60642;BME280;46837;52.446;-1.930;2023-04-03T01:54:09;101748.32;;;3.79;72.00
60642;BME280;46837;52.446;-1.930;2023-04-03T01:55:09;101749.46;;;3.80;72.12
60642;BME280;46837;52.446;-1.930;2023-04-03T01:56:09;101745.96;;;3.73;72.16
60642;BME280;46837;52.446;-1.930;2023-04-03T01:57:09;101750.29;;;3.72;72.26
60642;BME280;46837;52.446;-1.930;2023-04-03T01:58:09;101749.39;;;3.70;72.39
60642;BME280;46837;52.446;-1.930;2023-04-03T01:59:09;101750.12;;;3.71;72.37
60642;BME280;46837;52.446;-1.930;2023-04-03T02:00:09;101749.74;;;3.74;72.32
60642;BME280;46837;52.446;-1.930;2023-04-03T02:01:09;101754.65;;;3.74;72.17
60642;BME280;46837;52.446;-1.930;2023-04-03T02:02:09;101752.28;;;3.71;72.19
60642;BME280;46837;52.446;-1.930;2023-04-03T02:03:09;101755.53;;;3.71;72.41
60642;BME280;46837;52.446;-1.930;2023-04-03T02:04:09;101753.46;;;3.73;72.27
60642;BME280;46837;52.446;-1.930;2023-04-03T02:05:09;101754.04;;;3.74;72.24
60642;BME280;46837;52.446;-1.930;2023-04-03T02:06:09;101753.58;;;3.73;72.31
60642;BME280;46837;52.446;-1.930;2023-04-03T02:07:09;101756.05;;;3.73;72.25
60642;BME280;46837;52.446;-1.930;2023-04-03T02:08:09;101756.65;;;3.70;72.31
60642;BME280;46837;52.446;-1.930;2023-04-03T02:09:09;101757.64;;;3.71;72.35
60642;BME280;46837;52.446;-1.930;2023-04-03T02:10:09;101752.91;;;3.68;72.35
60642;BME280;46837;52.446;-1.930;2023-04-03T02:11:09;101751.07;;;3.67;72.35
60642;BME280;46837;52.446;-1.930;2023-04-03T02:12:09;101752.10;;;3.68;72.32
60642;BME280;46837;52.446;-1.930;2023-04-03T02:13:09;101754.25;;;3.68;72.29
60642;BME280;46837;52.446;-1.930;2023-04-03T02:14:09;101755.15;;;3.65;72.36
60642;BME280;46837;52.446;-1.930;2023-04-03T02:15:09;101751.43;;;3.66;72.41
60642;BME280;46837;52.446;-1.930;2023-04-03T02:16:09;101752.29;;;3.67;72.20
60642;BME280;46837;52.446;-1.930;2023-04-03T02:17:11;101753.88;;;3.63;72.22
60642;BME280;46837;52.446;-1.930;2023-04-03T02:18:09;101752.90;;;3.57;72.36
60642;BME280;46837;52.446;-1.930;2023-04-03T02:19:09;101750.47;;;3.51;72.81
60642;BME280;46837;52.446;-1.930;2023-04-03T02:20:09;101756.27;;;3.51;72.85
60642;BME280;46837;52.446;-1.930;2023-04-03T02:21:09;101756.58;;;3.50;72.96
60642;BME280;46837;52.446;-1.930;2023-04-03T02:22:09;101754.26;;;3.54;72.91
60642;BME280;46837;52.446;-1.930;2023-04-03T02:23:09;101753.86;;;3.53;72.91
60642;BME280;46837;52.446;-1.930;2023-04-03T02:24:09;101752.61;;;3.54;72.78
60642;BME280;46837;52.446;-1.930;2023-04-03T02:25:09;101752.36;;;3.49;72.84
60642;BME280;46837;52.446;-1.930;2023-04-03T02:26:12;101754.43;;;3.49;72.84
60642;BME280;46837;52.446;-1.930;2023-04-03T02:27:09;101756.59;;;3.51;72.75
60642;BME280;46837;52.446;-1.930;2023-04-03T02:28:09;101755.36;;;3.50;72.73
60642;BME280;46837;52.446;-1.930;2023-04-03T02:29:09;101758.46;;;3.52;72.79
60642;BME280;46837;52.446;-1.930;2023-04-03T02:30:09;101755.32;;;3.50;72.79
60642;BME280;46837;52.446;-1.930;2023-04-03T02:31:09;101754.85;;;3.51;72.70
60642;BME280;46837;52.446;-1.930;2023-04-03T02:32:09;101754.12;;;3.52;72.70
60642;BME280;46837;52.446;-1.930;2023-04-03T02:33:09;101753.78;;;3.49;72.54
60642;BME280;46837;52.446;-1.930;2023-04-03T02:34:09;101753.75;;;3.45;72.83
60642;BME280;46837;52.446;-1.930;2023-04-03T02:35:09;101751.62;;;3.47;72.75
60642;BME280;46837;52.446;-1.930;2023-04-03T02:36:09;101748.48;;;3.40;72.84
60642;BME280;46837;52.446;-1.930;2023-04-03T02:37:09;101752.48;;;3.45;72.96
60642;BME280;46837;52.446;-1.930;2023-04-03T02:38:09;101750.29;;;3.43;72.87
60642;BME280;46837;52.446;-1.930;2023-04-03T02:39:09;101750.48;;;3.43;72.83
60642;BME280;46837;52.446;-1.930;2023-04-03T02:40:09;101748.75;;;3.43;72.76
60642;BME280;46837;52.446;-1.930;2023-04-03T02:41:09;101751.48;;;3.46;72.67
60642;BME280;46837;52.446;-1.930;2023-04-03T02:42:09;101753.93;;;3.42;72.60
60642;BME280;46837;52.446;-1.930;2023-04-03T02:43:09;101752.21;;;3.41;72.69
60642;BME280;46837;52.446;-1.930;2023-04-03T02:44:11;101751.43;;;3.44;72.76
60642;BME280;46837;52.446;-1.930;2023-04-03T02:45:09;101753.25;;;3.44;72.67
60642;BME280;46837;52.446;-1.930;2023-04-03T02:46:09;101750.20;;;3.42;72.65
60642;BME280;46837;52.446;-1.930;2023-04-03T02:47:09;101752.33;;;3.41;72.69
60642;BME280;46837;52.446;-1.930;2023-04-03T02:48:09;101747.88;;;3.37;72.80
60642;BME280;46837;52.446;-1.930;2023-04-03T02:49:09;101750.11;;;3.37;72.92
60642;BME280;46837;52.446;-1.930;2023-04-03T02:50:09;101748.63;;;3.39;72.99
60642;BME280;46837;52.446;-1.930;2023-04-03T02:51:09;101750.00;;;3.37;72.97
60642;BME280;46837;52.446;-1.930;2023-04-03T02:52:09;101749.42;;;3.36;72.97
60642;BME280;46837;52.446;-1.930;2023-04-03T02:53:09;101743.01;;;3.36;72.94
60642;BME280;46837;52.446;-1.930;2023-04-03T02:54:09;101746.36;;;3.34;72.93
60642;BME280;46837;52.446;-1.930;2023-04-03T02:55:09;101746.68;;;3.33;73.04
60642;BME280;46837;52.446;-1.930;2023-04-03T02:56:09;101745.23;;;3.30;73.08
60642;BME280;46837;52.446;-1.930;2023-04-03T02:57:09;101745.86;;;3.27;73.07
60642;BME280;46837;52.446;-1.930;2023-04-03T02:58:09;101745.05;;;3.23;73.24
60642;BME280;46837;52.446;-1.930;2023-04-03T02:59:09;101746.15;;;3.24;73.34
60642;BME280;46837;52.446;-1.930;2023-04-03T03:00:09;101747.93;;;3.22;73.35
60642;BME280;46837;52.446;-1.930;2023-04-03T03:01:09;101744.16;;;3.23;73.26
60642;BME280;46837;52.446;-1.930;2023-04-03T03:02:09;101747.89;;;3.15;73.27
60642;BME280;46837;52.446;-1.930;2023-04-03T03:03:09;101746.66;;;3.13;73.57
60642;BME280;46837;52.446;-1.930;2023-04-03T03:04:09;101746.19;;;3.06;73.61
60642;BME280;46837;52.446;-1.930;2023-04-03T03:05:09;101743.00;;;3.02;73.81
60642;BME280;46837;52.446;-1.930;2023-04-03T03:06:13;101741.94;;;3.01;73.97
60642;BME280;46837;52.446;-1.930;2023-04-03T03:07:09;101740.52;;;3.06;73.89
60642;BME280;46837;52.446;-1.930;2023-04-03T03:08:09;101740.07;;;3.06;73.80
60642;BME280;46837;52.446;-1.930;2023-04-03T03:09:09;101741.69;;;3.04;73.78
60642;BME280;46837;52.446;-1.930;2023-04-03T03:10:09;101742.62;;;3.06;73.83
60642;BME280;46837;52.446;-1.930;2023-04-03T03:11:09;101739.15;;;3.02;73.73
60642;BME280;46837;52.446;-1.930;2023-04-03T03:12:09;101744.78;;;2.94;74.01
60642;BME280;46837;52.446;-1.930;2023-04-03T03:13:09;101741.82;;;2.89;74.24
60642;BME280;46837;52.446;-1.930;2023-04-03T03:14:09;101742.25;;;2.87;74.34
60642;BME280;46837;52.446;-1.930;2023-04-03T03:15:09;101740.85;;;2.86;74.35
60642;BME280;46837;52.446;-1.930;2023-04-03T03:16:09;101745.17;;;2.89;74.49
60642;BME280;46837;52.446;-1.930;2023-04-03T03:17:09;101744.23;;;2.83;74.46
60642;BME280;46837;52.446;-1.930;2023-04-03T03:18:09;101744.38;;;2.82;74.61
60642;BME280;46837;52.446;-1.930;2023-04-03T03:19:09;101741.07;;;2.83;74.58
60642;BME280;46837;52.446;-1.930;2023-04-03T03:20:09;101738.05;;;2.89;74.39
60642;BME280;46837;52.446;-1.930;2023-04-03T03:21:10;101736.97;;;2.90;74.28
60642;BME280;46837;52.446;-1.930;2023-04-03T03:22:09;101739.62;;;2.92;74.12
60642;BME280;46837;52.446;-1.930;2023-04-03T03:23:09;101738.09;;;2.89;74.03
60642;BME280;46837;52.446;-1.930;2023-04-03T03:24:09;101738.73;;;2.85;74.24
60642;BME280;46837;52.446;-1.930;2023-04-03T03:25:09;101741.67;;;2.90;74.26
60642;BME280;46837;52.446;-1.930;2023-04-03T03:26:10;101738.45;;;2.88;74.09
60642;BME280;46837;52.446;-1.930;2023-04-03T03:27:09;101737.47;;;2.80;74.37
60642;BME280;46837;52.446;-1.930;2023-04-03T03:28:09;101738.62;;;2.77;74.61
60642;BME280;46837;52.446;-1.930;2023-04-03T03:29:09;101739.24;;;2.82;74.57
60642;BME280;46837;52.446;-1.930;2023-04-03T03:30:09;101739.65;;;2.79;74.36
60642;BME280;46837;52.446;-1.930;2023-04-03T03:31:11;101740.85;;;2.74;74.51
60642;BME280;46837;52.446;-1.930;2023-04-03T03:32:09;101741.06;;;2.75;74.55
60642;BME280;46837;52.446;-1.930;2023-04-03T03:33:09;101741.91;;;2.67;74.63
60642;BME280;46837;52.446;-1.930;2023-04-03T03:34:09;101743.20;;;2.70;74.90
60642;BME280;46837;52.446;-1.930;2023-04-03T03:35:09;101741.51;;;2.68;74.74
60642;BME280;46837;52.446;-1.930;2023-04-03T03:36:09;101742.81;;;2.71;74.77
60642;BME280;46837;52.446;-1.930;2023-04-03T03:37:09;101741.42;;;2.70;74.53
60642;BME280;46837;52.446;-1.930;2023-04-03T03:38:09;101741.44;;;2.65;74.86
60642;BME280;46837;52.446;-1.930;2023-04-03T03:39:09;101746.11;;;2.70;74.73
60642;BME280;46837;52.446;-1.930;2023-04-03T03:40:09;101742.23;;;2.71;74.70
60642;BME280;46837;52.446;-1.930;2023-04-03T03:41:09;101741.33;;;2.73;74.58
60642;BME280;46837;52.446;-1.930;2023-04-03T03:42:09;101742.79;;;2.69;74.57
60642;BME280;46837;52.446;-1.930;2023-04-03T03:43:09;101739.77;;;2.68;74.67
60642;BME280;46837;52.446;-1.930;2023-04-03T03:44:09;101741.63;;;2.60;74.78
60642;BME280;46837;52.446;-1.930;2023-04-03T03:45:09;101740.21;;;2.56;75.02
60642;BME280;46837;52.446;-1.930;2023-04-03T03:46:09;101742.86;;;2.61;75.08
60642;BME280;46837;52.446;-1.930;2023-04-03T03:47:09;101738.17;;;2.61;74.81
60642;BME280;46837;52.446;-1.930;2023-04-03T03:48:09;101738.32;;;2.64;74.81
60642;BME280;46837;52.446;-1.930;2023-04-03T03:49:09;101741.82;;;2.67;74.61
60642;BME280;46837;52.446;-1.930;2023-04-03T03:50:09;101738.75;;;2.70;74.58
60642;BME280;46837;52.446;-1.930;2023-04-03T03:51:09;101738.28;;;2.68;74.41
60642;BME280;46837;52.446;-1.930;2023-04-03T03:52:09;101736.70;;;2.68;74.54
60642;BME280;46837;52.446;-1.930;2023-04-03T03:53:09;101736.40;;;2.70;74.50
60642;BME280;46837;52.446;-1.930;2023-04-03T03:54:09;101738.11;;;2.63;74.47
60642;BME280;46837;52.446;-1.930;2023-04-03T03:55:09;101736.75;;;2.65;74.72
60642;BME280;46837;52.446;-1.930;2023-04-03T03:56:09;101735.24;;;2.60;74.64
60642;BME280;46837;52.446;-1.930;2023-04-03T03:57:09;101736.91;;;2.58;74.81
60642;BME280;46837;52.446;-1.930;2023-04-03T03:58:09;101734.63;;;2.60;74.72
60642;BME280;46837;52.446;-1.930;2023-04-03T03:59:11;101737.57;;;2.59;74.68
60642;BME280;46837;52.446;-1.930;2023-04-03T04:00:09;101736.54;;;2.57;74.79
60642;BME280;46837;52.446;-1.930;2023-04-03T04:01:09;101736.16;;;2.52;74.83
60642;BME280;46837;52.446;-1.930;2023-04-03T04:02:09;101739.12;;;2.46;74.99
60642;BME280;46837;52.446;-1.930;2023-04-03T04:03:09;101741.39;;;2.43;75.19
60642;BME280;46837;52.446;-1.930;2023-04-03T04:04:09;101742.02;;;2.38;75.30
60642;BME280;46837;52.446;-1.930;2023-04-03T04:05:09;101742.98;;;2.40;75.52
60642;BME280;46837;52.446;-1.930;2023-04-03T04:06:09;101745.52;;;2.39;75.46
60642;BME280;46837;52.446;-1.930;2023-04-03T04:07:09;101747.25;;;2.42;75.49
60642;BME280;46837;52.446;-1.930;2023-04-03T04:08:09;101747.66;;;2.36;75.48
60642;BME280;46837;52.446;-1.930;2023-04-03T04:09:09;101744.18;;;2.35;75.62
60642;BME280;46837;52.446;-1.930;2023-04-03T04:10:09;101742.79;;;2.31;75.68
60642;BME280;46837;52.446;-1.930;2023-04-03T04:11:09;101745.47;;;2.29;75.88
60642;BME280;46837;52.446;-1.930;2023-04-03T04:12:09;101745.00;;;2.30;75.87
60642;BME280;46837;52.446;-1.930;2023-04-03T04:13:09;101743.96;;;2.28;75.72
60642;BME280;46837;52.446;-1.930;2023-04-03T04:14:09;101746.26;;;2.34;75.79
60642;BME280;46837;52.446;-1.930;2023-04-03T04:15:09;101746.15;;;2.35;75.63
60642;BME280;46837;52.446;-1.930;2023-04-03T04:16:09;101747.32;;;2.31;75.58
60642;BME280;46837;52.446;-1.930;2023-04-03T04:17:09;101746.47;;;2.31;75.73
60642;BME280;46837;52.446;-1.930;2023-04-03T04:18:09;101742.98;;;2.31;75.75
60642;BME280;46837;52.446;-1.930;2023-04-03T04:19:09;101742.12;;;2.26;75.77
60642;BME280;46837;52.446;-1.930;2023-04-03T04:20:09;101738.34;;;2.24;75.90
60642;BME280;46837;52.446;-1.930;2023-04-03T04:21:09;101735.45;;;2.20;76.03
60642;BME280;46837;52.446;-1.930;2023-04-03T04:22:09;101737.27;;;2.20;76.19
60642;BME280;46837;52.446;-1.930;2023-04-03T04:23:09;101735.78;;;2.20;76.24
60642;BME280;46837;52.446;-1.930;2023-04-03T04:24:09;101734.03;;;2.23;76.15
60642;BME280;46837;52.446;-1.930;2023-04-03T04:25:09;101735.72;;;2.26;76.08
60642;BME280;46837;52.446;-1.930;2023-04-03T04:26:09;101733.33;;;2.25;75.93
60642;BME280;46837;52.446;-1.930;2023-04-03T04:27:09;101733.53;;;2.25;76.00
60642;BME280;46837;52.446;-1.930;2023-04-03T04:28:09;101728.00;;;2.26;75.88
60642;BME280;46837;52.446;-1.930;2023-04-03T04:29:09;101729.08;;;2.28;75.83
60642;BME280;46837;52.446;-1.930;2023-04-03T04:30:09;101729.74;;;2.29;75.71
60642;BME280;46837;52.446;-1.930;2023-04-03T04:31:09;101731.58;;;2.27;75.59
60642;BME280;46837;52.446;-1.930;2023-04-03T04:32:09;101731.13;;;2.27;75.70
60642;BME280;46837;52.446;-1.930;2023-04-03T04:33:09;101730.55;;;2.29;75.73
60642;BME280;46837;52.446;-1.930;2023-04-03T04:34:09;101729.32;;;2.29;75.65
60642;BME280;46837;52.446;-1.930;2023-04-03T04:35:09;101728.43;;;2.25;75.65
60642;BME280;46837;52.446;-1.930;2023-04-03T04:36:09;101725.51;;;2.25;75.71
60642;BME280;46837;52.446;-1.930;2023-04-03T04:37:09;101725.31;;;2.21;75.70
60642;BME280;46837;52.446;-1.930;2023-04-03T04:38:09;101724.14;;;2.15;75.73
60642;BME280;46837;52.446;-1.930;2023-04-03T04:39:09;101726.16;;;2.11;76.02
60642;BME280;46837;52.446;-1.930;2023-04-03T04:40:09;101724.70;;;2.08;76.11
60642;BME280;46837;52.446;-1.930;2023-04-03T04:41:09;101720.76;;;2.07;76.30
60642;BME280;46837;52.446;-1.930;2023-04-03T04:42:09;101726.99;;;2.10;76.25
60642;BME280;46837;52.446;-1.930;2023-04-03T04:43:09;101725.20;;;2.12;76.28
60642;BME280;46837;52.446;-1.930;2023-04-03T04:44:09;101725.12;;;2.13;76.18
60642;BME280;46837;52.446;-1.930;2023-04-03T04:45:09;101723.61;;;2.15;76.21
60642;BME280;46837;52.446;-1.930;2023-04-03T04:46:09;101724.78;;;2.08;76.00
60642;BME280;46837;52.446;-1.930;2023-04-03T04:47:09;101723.09;;;2.03;76.22
60642;BME280;46837;52.446;-1.930;2023-04-03T04:48:09;101726.14;;;2.01;76.45
60642;BME280;46837;52.446;-1.930;2023-04-03T04:49:09;101725.66;;;1.98;76.49
60642;BME280;46837;52.446;-1.930;2023-04-03T04:50:09;101723.94;;;1.97;76.60
60642;BME280;46837;52.446;-1.930;2023-04-03T04:51:09;101722.00;;;1.96;76.62
60642;BME280;46837;52.446;-1.930;2023-04-03T04:52:09;101724.00;;;2.01;76.60
60642;BME280;46837;52.446;-1.930;2023-04-03T04:53:09;101723.00;;;2.02;76.39
60642;BME280;46837;52.446;-1.930;2023-04-03T04:54:09;101723.33;;;1.96;76.46
60642;BME280;46837;52.446;-1.930;2023-04-03T04:55:09;101720.71;;;1.94;76.59
60642;BME280;46837;52.446;-1.930;2023-04-03T04:56:09;101721.69;;;1.91;76.70
60642;BME280;46837;52.446;-1.930;2023-04-03T04:57:09;101723.09;;;1.93;76.76
60642;BME280;46837;52.446;-1.930;2023-04-03T04:58:09;101723.22;;;1.97;76.78
60642;BME280;46837;52.446;-1.930;2023-04-03T04:59:09;101723.90;;;1.97;76.55
60642;BME280;46837;52.446;-1.930;2023-04-03T05:00:09;101721.58;;;1.92;76.61
60642;BME280;46837;52.446;-1.930;2023-04-03T05:01:09;101720.69;;;1.95;76.61
60642;BME280;46837;52.446;-1.930;2023-04-03T05:02:09;101722.45;;;1.91;76.62
60642;BME280;46837;52.446;-1.930;2023-04-03T05:03:09;101721.40;;;1.91;76.73
60642;BME280;46837;52.446;-1.930;2023-04-03T05:04:09;101723.18;;;1.85;76.88
60642;BME280;46837;52.446;-1.930;2023-04-03T05:05:09;101723.65;;;1.82;77.01
60642;BME280;46837;52.446;-1.930;2023-04-03T05:06:09;101724.25;;;1.87;77.00
60642;BME280;46837;52.446;-1.930;2023-04-03T05:07:09;101727.81;;;1.93;76.89
60642;BME280;46837;52.446;-1.930;2023-04-03T05:08:09;101726.36;;;1.93;76.71
60642;BME280;46837;52.446;-1.930;2023-04-03T05:09:09;101728.84;;;1.94;76.79
60642;BME280;46837;52.446;-1.930;2023-04-03T05:10:09;101729.27;;;1.93;76.88
60642;BME280;46837;52.446;-1.930;2023-04-03T05:11:09;101732.51;;;1.97;76.94
60642;BME280;46837;52.446;-1.930;2023-04-03T05:12:09;101734.38;;;1.97;76.86
60642;BME280;46837;52.446;-1.930;2023-04-03T05:13:09;101733.36;;;1.96;76.78
60642;BME280;46837;52.446;-1.930;2023-04-03T05:14:09;101735.53;;;1.90;77.04
60642;BME280;46837;52.446;-1.930;2023-04-03T05:15:09;101738.59;;;1.86;77.31
60642;BME280;46837;52.446;-1.930;2023-04-03T05:16:09;101737.79;;;1.89;77.42
60642;BME280;46837;52.446;-1.930;2023-04-03T05:17:09;101736.25;;;1.89;77.18
60642;BME280;46837;52.446;-1.930;2023-04-03T05:18:09;101735.75;;;1.77;77.44
60642;BME280;46837;52.446;-1.930;2023-04-03T05:19:09;101732.80;;;1.80;77.72